Latest Weather Observations for Grafton Airport

IDN60801

Issued at 11:33 pm EST Monday 25 July 2016 (issued every 30 minutes, with the page automatically refreshed every 10 minutes)

About weather observations | Map of weather stations | Latest weather observations for NSW | Other Formats
Station Details ID: 058161 Name: GRAFTON AIRPORT AWS Lat: -29.76 Lon: 153.03 Height: 25.09 m
Data from the previous 72 hours. | See also: Recent months at Grafton Airport
Date/Time
EST
Temp
°C
App
Temp
°C
Dew
Point
°C
Rel
Hum
%
Delta-T
°C
Wind Press
QNH
hPa
Press
MSL
hPa
Rain since
9am
mm
Dir  Spd
km/h
Gust
km/h
Spd
kts
Gust
kts
25/11:30pm 6.5 4.3 5.1 91 0.6 SSW 6 7 3 4 1017.1 1017.1 0.0
25/11:00pm 6.2 5.1 5.0 92 0.5 CALM 0 0 0 0 1017.2 1017.2 0.0
25/10:30pm 6.1 4.9 4.6 90 0.6 CALM 0 2 0 1 1017.4 1017.4 0.0
25/10:00pm 6.3 5.1 4.8 90 0.7 CALM 0 4 0 2 1017.5 1017.5 0.0
25/09:30pm 7.5 6.5 5.8 89 0.8 CALM 0 6 0 3 1017.5 1017.5 0.0
25/09:00pm 8.0 7.1 6.0 87 0.9 CALM 0 0 0 0 1017.6 1017.6 0.0
25/08:30pm 8.5 7.3 6.3 86 1.0 NNW 2 7 1 4 1017.4 1017.4 0.0
25/08:00pm 8.4 6.1 4.8 78 1.6 SSW 6 9 3 5 1017.2 1017.2 0.0
25/07:30pm 10.0 8.1 6.5 79 1.6 SW 6 7 3 4 1016.8 1016.8 0.0
25/07:00pm 9.7 7.5 6.2 79 1.6 SW 7 7 4 4 1016.6 1016.6 0.0
25/06:30pm 11.5 10.3 6.4 71 2.4 S 2 7 1 4 1016.2 1016.2 0.0
25/06:00pm 12.8 11.9 6.2 64 3.1 CALM 0 0 0 0 1015.8 1015.8 0.0
25/05:30pm 14.5 12.3 6.3 58 3.9 SW 7 9 4 5 1015.4 1015.4 0.0
25/05:00pm 15.9 12.5 6.1 52 4.7 ESE 13 19 7 10 1015.0 1015.0 0.0
25/04:30pm 17.5 14.6 6.4 48 5.5 ESE 11 19 6 10 1014.9 1014.9 0.0
25/04:00pm 20.4 17.8 4.0 34 7.9 NW 7 22 4 12 1014.5 1014.5 0.0
25/03:30pm 21.2 17.7 1.5 27 9.1 WNW 9 15 5 8 1014.2 1014.2 0.0
25/03:00pm 21.5 18.2 2.2 28 9.0 W 9 17 5 9 1014.2 1014.2 0.0
25/02:30pm 21.0 17.3 2.3 29 8.7 WSW 11 17 6 9 1014.2 1014.2 0.0
25/02:00pm 20.9 18.4 3.6 32 8.3 N 6 20 3 11 1014.5 1014.5 0.0
25/01:30pm 20.1 16.7 3.8 34 7.8 NNW 11 17 6 9 1014.7 1014.7 0.0
25/01:00pm 19.8 16.9 4.7 37 7.3 W 9 17 5 9 1014.9 1014.9 0.0
25/12:30pm 19.0 15.1 3.6 36 7.3 NNW 13 20 7 11 1015.1 1015.1 0.0
25/12:00pm 17.9 13.2 3.4 38 6.7 N 17 24 9 13 1015.6 1015.6 0.0
25/11:30am 16.6 13.1 3.7 42 6.0 NNW 11 17 6 9 1016.2 1016.2 0.0
25/11:00am 16.8 13.9 4.5 44 5.8 WNW 9 13 5 7 1016.5 1016.5 0.0
25/10:30am 15.8 11.9 3.3 43 5.7 W 13 24 7 13 1017.1 1017.1 0.0
25/10:00am 16.1 13.0 3.5 43 5.8 W 9 26 5 14 1017.3 1017.3 0.0
25/09:30am 12.7 10.5 6.3 65 3.0 N 7 11 4 6 1017.7 1017.7 0.0
25/09:27am 12.7 10.6 6.7 67 2.9 N 7 9 4 5 1017.6 1017.6 0.0
25/09:12am 11.3 9.5 5.4 67 2.7 N 4 9 2 5 1017.8 1017.8 0.0
25/09:00am 10.3 9.2 5.3 71 2.3 CALM 0 2 0 1 1017.7 1017.7 0.0
25/08:30am 8.1 5.8 4.9 80 1.4 S 6 7 3 4 1017.7 1017.7 0.0
25/08:00am 7.8 5.3 4.9 82 1.3 S 7 9 4 5 1017.7 1017.7 0.0
25/07:30am 6.2 3.3 4.4 88 0.8 SSW 9 11 5 6 1017.3 1017.3 0.0
25/07:00am 4.4 2.9 2.8 89 0.6 CALM 0 0 0 0 1017.2 1017.2 0.0
25/06:30am 4.9 3.3 2.6 85 0.9 CALM 0 0 0 0 1016.9 1016.9 0.0
25/06:00am 5.6 4.1 2.8 82 1.1 CALM 0 0 0 0 1016.6 1016.6 0.0
25/05:30am 5.8 4.3 2.8 81 1.2 CALM 0 0 0 0 1016.4 1016.4 0.0
25/05:00am 6.4 4.9 3.2 80 1.3 CALM 0 0 0 0 1016.3 1016.3 0.0
25/04:30am 6.9 5.5 3.3 78 1.5 CALM 0 0 0 0 1016.0 1016.0 0.0
25/04:00am 7.1 5.6 3.0 75 1.7 CALM 0 6 0 3 1016.0 1016.0 0.0
25/03:59am 7.0 5.1 2.9 75 1.7 NW 2 6 1 3 1016.0 1016.0 0.0
25/03:48am 6.9 4.6 3.0 76 1.6 NNW 4 7 2 4 1016.0 1016.0 0.0
25/03:30am 7.6 6.0 2.7 71 2.0 CALM 0 0 0 0 1016.1 1016.1 0.0
25/03:00am 8.3 6.8 2.8 68 2.3 CALM 0 0 0 0 1016.3 1016.3 0.0
25/02:30am 9.3 6.6 2.4 62 2.9 SW 6 9 3 5 1016.2 1016.2 0.0
25/02:00am 11.0 8.2 2.3 55 3.7 WNW 6 9 3 5 1016.2 1016.2 0.0
25/01:30am 11.2 9.2 2.5 55 3.7 NW 2 6 1 3 1016.1 1016.1 0.0
25/01:00am 11.7 9.7 2.2 52 4.1 W 2 9 1 5 1016.2 1016.2 0.0
25/12:30am 12.1 9.8 2.6 52 4.1 W 4 11 2 6 1016.1 1016.1 0.0
25/12:00am 11.8 9.7 3.8 58 3.6 WSW 4 9 2 5 1016.0 1016.0 0.0
 
Date/Time
EST
Temp
°C
App
Temp
°C
Dew
Point
°C
Rel
Hum
%
Delta-T
°C
Wind Press
QNH
hPa
Press
MSL
hPa
Rain since
9am
mm
Dir  Spd
km/h
Gust
km/h
Spd
kts
Gust
kts
24/11:30pm 11.2 9.2 6.1 71 2.4 WSW 6 9 3 5 1016.0 1016.0 0.0
24/11:00pm 10.6 9.0 7.8 83 1.4 SSW 6 9 3 5 1016.0 1016.0 0.0
24/10:30pm 10.9 9.7 8.0 82 1.4 SW 4 7 2 4 1015.9 1015.9 0.0
24/10:00pm 11.0 9.2 8.1 82 1.4 S 7 7 4 4 1015.5 1015.5 0.0
24/09:30pm 11.2 10.8 8.2 82 1.5 CALM 0 0 0 0 1015.4 1015.4 0.0
24/09:00pm 11.5 10.6 7.6 77 1.9 S 2 7 1 4 1015.1 1015.1 0.0
24/08:30pm 11.8 10.1 7.7 76 2.0 SSW 6 7 3 4 1014.7 1014.7 0.0
24/08:00pm 12.1 10.7 7.2 72 2.4 WSW 4 7 2 4 1014.9 1014.9 0.0
24/07:30pm 12.3 11.7 7.2 71 2.5 CALM 0 0 0 0 1014.7 1014.7 0.0
24/07:00pm 12.6 11.0 8.1 74 2.2 ENE 6 11 3 6 1014.2 1014.2 0.0
24/06:30pm 13.1 12.4 6.9 66 3.0 CALM 0 0 0 0 1014.3 1014.3 0.0
24/06:00pm 13.3 11.5 7.3 67 2.9 SE 6 6 3 3 1014.1 1014.1 0.0
24/05:30pm 13.6 11.7 7.4 66 3.0 S 7 7 4 4 1014.0 1014.0 0.0
24/05:00pm 14.4 12.3 6.0 57 4.0 SSE 6 7 3 4 1013.5 1013.5 0.0
24/04:30pm 15.0 12.3 5.8 54 4.4 SSW 9 13 5 7 1013.7 1013.7 0.0
24/04:00pm 15.5 12.4 5.7 52 4.7 S 11 15 6 8 1013.6 1013.6 0.0
24/03:30pm 16.5 14.7 5.2 47 5.4 WSW 4 7 2 4 1013.3 1013.3 0.0
24/03:00pm 16.6 15.3 4.3 44 5.8 CALM 0 0 0 0 1012.9 1012.9 0.0
24/02:30pm 16.8 13.8 4.2 43 5.9 N 9 11 5 6 1012.8 1012.8 0.0
24/02:00pm 16.8 13.6 3.1 40 6.3 NNW 9 17 5 9 1013.4 1013.4 0.0
24/01:30pm 16.8 14.6 3.1 40 6.3 S 4 7 2 4 1014.2 1014.2 0.0
24/01:00pm 16.8 14.0 3.1 40 6.3 S 7 11 4 6 1015.0 1015.0 0.0
24/12:30pm 16.8 13.9 2.4 38 6.5 SW 7 15 4 8 1015.5 1015.5 0.0
24/12:00pm 17.2 14.4 3.1 39 6.5 SSW 7 15 4 8 1015.9 1015.9 0.0
24/11:30am 16.1 12.8 2.2 39 6.2 WSW 9 15 5 8 1016.8 1016.8 0.0
24/11:00am 15.3 12.6 3.5 45 5.4 SW 7 13 4 7 1016.9 1016.9 0.0
24/10:30am 14.4 11.9 4.7 52 4.5 SSW 7 9 4 5 1017.5 1017.5 0.0
24/10:00am 14.5 11.3 3.3 47 5.0 SSW 9 13 5 7 1017.5 1017.5 0.0
24/09:30am 14.5 11.2 2.7 45 5.3 SW 9 11 5 6 1017.5 1017.5 0.0
24/09:00am 14.0 10.8 2.9 47 4.9 SW 9 17 5 9 1017.3 1017.3 0.0
24/08:30am 12.5 10.0 4.0 56 3.8 S 6 7 3 4 1017.1 1017.1 0.0
24/08:00am 12.0 9.6 4.2 59 3.5 SSW 6 7 3 4 1016.8 1016.8 0.0
24/07:30am 10.1 8.7 5.5 73 2.1 S 2 7 1 4 1016.8 1016.8 0.0
24/07:00am 9.8 8.7 5.0 72 2.2 CALM 0 0 0 0 1016.9 1016.9 0.0
24/06:30am 10.0 8.7 4.2 67 2.6 CALM 0 0 0 0 1015.9 1015.9 0.0
24/06:00am 10.5 8.9 4.4 66 2.7 E 2 7 1 4 1015.5 1015.5 0.0
24/05:30am 10.6 9.3 4.3 65 2.8 CALM 0 6 0 3 1015.2 1015.2 0.0
24/05:00am 11.4 9.5 2.7 55 3.8 SSW 2 7 1 4 1014.3 1014.3 0.0
24/04:30am 12.2 9.4 2.1 50 4.4 SSW 6 9 3 5 1014.1 1014.1 0.0
24/04:00am 12.4 10.3 1.7 48 4.6 SW 2 7 1 4 1014.3 1014.3 0.0
24/03:30am 12.5 10.6 2.7 51 4.3 WNW 2 7 1 4 1014.3 1014.3 0.0
24/03:00am 13.1 10.0 1.5 45 5.0 WSW 7 11 4 6 1014.0 1014.0 0.0
24/02:30am 13.5 10.0 1.5 44 5.2 WSW 9 13 5 7 1014.3 1014.3 0.0
24/02:00am 13.6 11.1 1.6 44 5.2 W 4 11 2 6 1013.8 1013.8 0.0
24/01:30am 13.9 10.6 2.5 46 5.0 WSW 9 15 5 8 1013.7 1013.7 0.0
24/01:00am 13.9 11.0 2.5 46 5.0 W 7 15 4 8 1013.9 1013.9 0.0
24/12:30am 14.3 11.0 2.5 45 5.2 WSW 9 15 5 8 1013.7 1013.7 0.0
24/12:00am 14.4 11.7 2.6 45 5.2 WNW 6 13 3 7 1013.4 1013.4 0.0
 
Date/Time
EST
Temp
°C
App
Temp
°C
Dew
Point
°C
Rel
Hum
%
Delta-T
°C
Wind Press
QNH
hPa
Press
MSL
hPa
Rain since
9am
mm
Dir  Spd
km/h
Gust
km/h
Spd
kts
Gust
kts
23/11:30pm 14.6 11.3 2.2 43 5.5 WSW 9 15 5 8 1013.5 1013.5 0.0
23/11:00pm 14.7 11.9 1.9 42 5.6 W 6 13 3 7 1013.0 1013.0 0.0
23/10:30pm 14.9 12.1 2.1 42 5.7 NW 6 13 3 7 1012.8 1012.8 0.0
23/10:00pm 14.8 11.9 1.7 41 5.7 W 6 9 3 5 1012.8 1012.8 0.0
23/09:30pm 15.3 12.8 1.4 39 6.1 NNW 4 17 2 9 1012.4 1012.4 0.0
23/09:00pm 16.1 12.9 0.7 35 6.7 WNW 7 11 4 6 1012.3 1012.3 0.0
23/08:30pm 17.0 13.4 0.6 33 7.1 NW 9 17 5 9 1011.8 1011.8 0.0
23/08:00pm 17.6 13.5 -0.2 30 7.7 W 11 24 6 13 1011.4 1011.4 0.0
23/07:30pm 18.3 13.5 0.0 29 8.0 W 15 28 8 15 1010.7 1010.7 0.0
23/07:00pm 18.5 14.3 -0.8 27 8.3 WSW 11 19 6 10 1010.1 1010.1 0.0
23/06:30pm 19.3 15.0 -1.7 24 8.9 W 11 22 6 12 1009.4 1009.4 0.0
23/06:00pm 20.0 16.4 -2.3 22 9.4 W 7 13 4 7 1008.4 1008.4 0.0
23/05:30pm 21.3 16.0 -3.2 19 10.3 WNW 15 28 8 15 1007.9 1007.9 0.0
23/05:00pm 21.7 17.6 -0.3 23 9.8 NW 11 24 6 13 1007.0 1007.0 0.0
23/04:30pm 23.4 19.2 -0.8 20 10.8 WNW 11 19 6 10 1006.4 1006.4 0.0
23/04:00pm 24.5 19.0 -2.1 17 11.8 WNW 17 30 9 16 1006.0 1006.0 0.0
23/03:30pm 25.6 21.5 -0.5 18 12.0 WNW 11 24 6 13 1005.6 1005.6 0.0
23/03:00pm 26.0 21.3 0.6 19 12.0 W 15 30 8 16 1005.4 1005.4 0.0
23/02:30pm 26.3 21.0 -0.7 17 12.4 W 17 32 9 17 1005.1 1005.1 0.0
23/02:00pm 26.9 22.2 0.6 18 12.5 WNW 15 30 8 16 1004.7 1004.7 0.0
23/01:30pm 27.3 22.7 3.7 22 11.8 WNW 17 35 9 19 1004.6 1004.6 0.0
23/01:00pm 27.4 23.3 4.5 23 11.7 W 15 26 8 14 1004.5 1004.5 0.0
23/12:30pm 27.1 23.7 7.5 29 10.5 W 15 26 8 14 1004.9 1004.9 0.0
23/12:00pm 27.0 23.2 8.9 32 9.9 W 19 41 10 22 1005.1 1005.1 0.0
23/11:30am 26.7 21.7 8.2 31 10.0 W 24 46 13 25 1005.4 1005.4 0.0
23/11:00am 26.6 24.3 10.3 36 9.1 WNW 13 32 7 17 1005.4 1005.4 0.0
23/10:30am 26.8 25.1 12.5 41 8.3 W 13 28 7 15 1005.4 1005.4 0.0
23/10:00am 26.3 23.7 12.0 41 8.2 WNW 17 28 9 15 1005.5 1005.5 0.0
23/09:30am 26.4 25.2 13.9 46 7.4 WNW 13 35 7 19 1005.4 1005.4 0.0
23/09:00am 25.6 24.4 12.8 45 7.5 WNW 11 22 6 12 1005.2 1005.2 0.2
23/08:30am 23.6 22.7 13.8 54 5.7 NW 11 24 6 13 1005.2 1005.2 0.2
23/08:00am 21.9 22.4 15.0 65 4.1 WNW 6 15 3 8 1005.1 1005.1 0.2
23/07:58am 21.5 22.0 14.9 66 3.9 WNW 6 15 3 8 1005.1 1005.1 0.2
23/07:30am 16.4 16.8 14.8 90 0.9 SSW 6 9 3 5 1004.9 1004.9 0.2
23/07:00am 15.9 16.6 14.4 91 0.9 E 4 9 2 5 1004.7 1004.7 0.2
23/06:30am 16.3 17.3 14.3 88 1.1 NE 2 7 1 4 1004.8 1004.8 0.2
23/06:00am 16.5 16.2 14.5 88 1.2 NNE 9 15 5 8 1004.3 1004.3 0.2
23/05:30am 16.9 16.4 14.9 88 1.2 N 11 13 6 7 1004.0 1004.0 0.2
23/05:00am 17.4 17.3 14.9 85 1.5 NNE 9 15 5 8 1004.1 1004.1 0.2
23/04:30am 17.3 16.4 14.9 86 1.4 NNE 13 15 7 8 1004.3 1004.3 0.2
23/04:00am 17.2 17.2 15.2 88 1.2 NNE 9 13 5 7 1004.4 1004.4 0.2
23/03:30am 16.8 15.6 15.0 89 1.0 NNE 15 17 8 9 1004.1 1004.1 0.2
23/03:00am 16.6 15.4 15.0 90 0.9 NNE 15 17 8 9 1004.5 1004.5 0.2
23/02:30am 16.5 15.5 14.7 89 1.0 NNE 13 15 7 8 1004.8 1004.8 0.2
23/02:00am 16.8 15.6 15.0 89 1.0 NE 15 19 8 10 1005.1 1005.1 0.2
23/01:30am 16.4 16.2 14.8 90 0.9 NE 9 11 5 6 1006.0 1006.0 0.2
23/01:00am 16.3 16.2 14.0 86 1.3 ENE 7 9 4 5 1006.6 1006.6 0.2
23/12:30am 17.2 17.4 14.8 86 1.4 NE 7 9 4 5 1007.0 1007.0 0.2
23/12:00am 17.4 16.9 15.0 86 1.4 NE 11 13 6 7 1007.1 1007.1 0.2

Other Formats:

Comma delimited format used in spreadsheet applications
http://www.bom.gov.au/fwo/IDN60801/IDN60801.95570.axf

JavaScript Object Notation format (JSON) in row-major order
http://www.bom.gov.au/fwo/IDN60801/IDN60801.95570.json